^^
TXWeather Station Historical Data
Daily Summary for May 21, 2022 Units:  English    Metric   Both
Daily Weekly Monthly Yearly Custom
  High: Low: Average:
Temperature: 98.0 °F 80.0 °F 86.8 °F
Dew Point: 80.0 °F 74.0 °F 76.5 °F
Humidity: 83% 55% 72%
Wind Speed: 21mph 4mph 10.1mph
Wind Gust: 21mph - -
Wind- - SE
Pressure: 30.0 in 29.8 in -
Precipitation: 0.000 in    
Historical Graphs
 
 
Tabular Data for May 21, 2022
Time Temperature Dew Point Pressure Wind Wind Speed Wind Gust Humidity Rainfall Rate (Hourly) solar
00:04 82.0 °F 75.0 °F 29.8 in SSE 11 mph 13 mph 80% 0.000 in 0.00 W/m2
00:09 82.0 °F 75.0 °F 29.8 in SSE 12 mph 13 mph 80% 0.000 in 0.00 W/m2
00:14 82.0 °F 75.0 °F 29.8 in SSE 9 mph 12 mph 80% 0.000 in 0.00 W/m2
00:19 82.0 °F 75.0 °F 29.8 in SE 8 mph 12 mph 80% 0.000 in 0.00 W/m2
00:24 82.0 °F 75.0 °F 29.8 in SSE 10 mph 10 mph 80% 0.000 in 0.00 W/m2
00:29 82.0 °F 75.0 °F 29.8 in SSE 9 mph 10 mph 80% 0.000 in 0.00 W/m2
00:34 82.0 °F 75.0 °F 29.8 in SSE 10 mph 11 mph 79% 0.000 in 0.00 W/m2
00:39 82.0 °F 75.0 °F 29.8 in SSE 8 mph 10 mph 79% 0.000 in 0.00 W/m2
00:44 82.0 °F 75.0 °F 29.8 in SSE 8 mph 10 mph 79% 0.000 in 0.00 W/m2
00:49 82.0 °F 75.0 °F 29.8 in SSE 6 mph 11 mph 79% 0.000 in 0.00 W/m2
00:54 82.0 °F 75.0 °F 29.8 in SSE 8 mph 8 mph 79% 0.000 in 0.00 W/m2
00:59 82.0 °F 75.0 °F 29.8 in SSE 6 mph 6 mph 79% 0.000 in 0.00 W/m2
01:04 82.0 °F 75.0 °F 29.8 in SE 8 mph 8 mph 79% 0.000 in 0.00 W/m2
01:09 82.0 °F 75.0 °F 29.8 in SE 9 mph 9 mph 79% 0.000 in 0.00 W/m2
01:14 82.0 °F 75.0 °F 29.8 in SSE 6 mph 9 mph 79% 0.000 in 0.00 W/m2
01:19 82.0 °F 75.0 °F 29.8 in SE 10 mph 10 mph 79% 0.000 in 0.00 W/m2
01:24 82.0 °F 75.0 °F 29.8 in SE 7 mph 10 mph 79% 0.000 in 0.00 W/m2
01:29 82.0 °F 75.0 °F 29.8 in SE 9 mph 10 mph 79% 0.000 in 0.00 W/m2
01:34 82.0 °F 75.0 °F 29.8 in SE 9 mph 10 mph 79% 0.000 in 0.00 W/m2
01:39 82.0 °F 75.0 °F 29.8 in SE 9 mph 10 mph 79% 0.000 in 0.00 W/m2
01:44 82.0 °F 75.0 °F 29.8 in SE 8 mph 8 mph 79% 0.000 in 0.00 W/m2
01:49 82.0 °F 75.0 °F 29.8 in SE 8 mph 8 mph 79% 0.000 in 0.00 W/m2
01:54 82.0 °F 75.0 °F 29.8 in SSE 8 mph 11 mph 79% 0.000 in 0.00 W/m2
01:59 82.0 °F 75.0 °F 29.8 in SSE 10 mph 11 mph 79% 0.000 in 0.00 W/m2
02:04 82.0 °F 75.0 °F 29.8 in SSE 11 mph 11 mph 80% 0.000 in 0.00 W/m2
02:09 82.0 °F 75.0 °F 29.8 in SSE 11 mph 12 mph 80% 0.000 in 0.00 W/m2
02:14 82.0 °F 75.0 °F 29.8 in SSE 9 mph 12 mph 80% 0.000 in 0.00 W/m2
02:19 82.0 °F 75.0 °F 29.8 in SE 7 mph 9 mph 80% 0.000 in 0.00 W/m2
02:24 82.0 °F 75.0 °F 29.8 in SE 9 mph 10 mph 79% 0.000 in 0.00 W/m2
02:29 82.0 °F 74.0 °F 29.8 in SSE 11 mph 12 mph 79% 0.000 in 0.00 W/m2
02:34 82.0 °F 74.0 °F 29.8 in SSE 9 mph 12 mph 79% 0.000 in 0.00 W/m2
02:39 82.0 °F 74.0 °F 29.8 in SSE 8 mph 8 mph 79% 0.000 in 0.00 W/m2
02:44 81.0 °F 74.0 °F 29.8 in SSE 10 mph 10 mph 79% 0.000 in 0.00 W/m2
02:49 81.0 °F 74.0 °F 29.8 in SSE 9 mph 11 mph 79% 0.000 in 0.00 W/m2
02:54 81.0 °F 74.0 °F 29.8 in SSE 7 mph 8 mph 79% 0.000 in 0.00 W/m2
02:59 81.0 °F 74.0 °F 29.8 in SSE 6 mph 7 mph 79% 0.000 in 0.00 W/m2
03:04 81.0 °F 75.0 °F 29.8 in SSE 8 mph 10 mph 80% 0.000 in 0.00 W/m2
03:09 81.0 °F 75.0 °F 29.8 in SSE 5 mph 6 mph 80% 0.000 in 0.00 W/m2
03:14 81.0 °F 75.0 °F 29.8 in SSE 7 mph 7 mph 80% 0.000 in 0.00 W/m2
03:19 81.0 °F 75.0 °F 29.8 in SSE 5 mph 7 mph 80% 0.000 in 0.00 W/m2
03:24 81.0 °F 75.0 °F 29.8 in SE 7 mph 7 mph 80% 0.000 in 0.00 W/m2
03:29 81.0 °F 75.0 °F 29.8 in SE 5 mph 7 mph 80% 0.000 in 0.00 W/m2
03:34 81.0 °F 74.0 °F 29.8 in SE 5 mph 7 mph 80% 0.000 in 0.00 W/m2
03:39 81.0 °F 74.0 °F 29.8 in SE 7 mph 7 mph 80% 0.000 in 0.00 W/m2
03:44 81.0 °F 74.0 °F 29.8 in SE 8 mph 8 mph 80% 0.000 in 0.00 W/m2
03:49 81.0 °F 75.0 °F 29.8 in SE 7 mph 7 mph 81% 0.000 in 0.00 W/m2
03:54 81.0 °F 75.0 °F 29.8 in SE 8 mph 8 mph 81% 0.000 in 0.00 W/m2
03:59 81.0 °F 75.0 °F 29.8 in SE 8 mph 9 mph 81% 0.000 in 0.00 W/m2
04:04 81.0 °F 75.0 °F 29.8 in SE 7 mph 8 mph 81% 0.000 in 0.00 W/m2
04:09 81.0 °F 75.0 °F 29.8 in SE 7 mph 7 mph 81% 0.000 in 0.00 W/m2
04:14 81.0 °F 75.0 °F 29.8 in SE 9 mph 9 mph 81% 0.000 in 0.00 W/m2
04:19 81.0 °F 75.0 °F 29.8 in SE 7 mph 8 mph 81% 0.000 in 0.00 W/m2
04:24 81.0 °F 75.0 °F 29.8 in SE 10 mph 10 mph 81% 0.000 in 0.00 W/m2
04:29 81.0 °F 75.0 °F 29.8 in SE 9 mph 9 mph 81% 0.000 in 0.00 W/m2
04:34 81.0 °F 75.0 °F 29.8 in SE 8 mph 9 mph 81% 0.000 in 0.00 W/m2
04:39 81.0 °F 75.0 °F 29.8 in SE 8 mph 9 mph 81% 0.000 in 0.00 W/m2
04:44 81.0 °F 75.0 °F 29.8 in SE 11 mph 12 mph 81% 0.000 in 0.00 W/m2
04:49 81.0 °F 75.0 °F 29.8 in SE 10 mph 12 mph 81% 0.000 in 0.00 W/m2
04:54 81.0 °F 75.0 °F 29.8 in SE 8 mph 9 mph 81% 0.000 in 0.00 W/m2
04:59 81.0 °F 75.0 °F 29.8 in SE 10 mph 10 mph 81% 0.000 in 0.00 W/m2
05:04 81.0 °F 75.0 °F 29.8 in SE 6 mph 6 mph 81% 0.000 in 0.00 W/m2
05:09 81.0 °F 74.0 °F 29.8 in SSE 8 mph 8 mph 81% 0.000 in 0.00 W/m2
05:14 81.0 °F 74.0 °F 29.8 in SE 5 mph 7 mph 81% 0.000 in 0.00 W/m2
05:19 81.0 °F 74.0 °F 29.8 in SE 11 mph 11 mph 81% 0.000 in 0.00 W/m2
05:24 81.0 °F 74.0 °F 29.8 in SE 8 mph 8 mph 81% 0.000 in 0.00 W/m2
05:29 81.0 °F 74.0 °F 29.8 in SE 8 mph 9 mph 81% 0.000 in 0.00 W/m2
05:34 81.0 °F 74.0 °F 29.8 in SE 7 mph 8 mph 81% 0.000 in 0.00 W/m2
05:39 81.0 °F 74.0 °F 29.8 in SE 9 mph 10 mph 81% 0.000 in 0.00 W/m2
05:44 81.0 °F 75.0 °F 29.8 in SSE 8 mph 10 mph 82% 0.000 in 0.00 W/m2
05:49 81.0 °F 75.0 °F 29.8 in SE 10 mph 11 mph 82% 0.000 in 0.00 W/m2
05:54 81.0 °F 75.0 °F 29.8 in SE 9 mph 11 mph 82% 0.000 in 0.00 W/m2
05:59 81.0 °F 75.0 °F 29.8 in SE 9 mph 11 mph 82% 0.000 in 0.00 W/m2
06:04 81.0 °F 75.0 °F 29.8 in SE 12 mph 12 mph 82% 0.000 in 0.00 W/m2
06:09 80.0 °F 75.0 °F 29.8 in SE 8 mph 12 mph 82% 0.000 in 0.00 W/m2
06:14 80.0 °F 75.0 °F 29.8 in SE 9 mph 9 mph 82% 0.000 in 0.00 W/m2
06:19 80.0 °F 75.0 °F 29.8 in SE 6 mph 9 mph 82% 0.000 in 0.00 W/m2
06:24 80.0 °F 74.0 °F 29.8 in SE 7 mph 9 mph 82% 0.000 in 0.00 W/m2
06:29 80.0 °F 74.0 °F 29.8 in SE 7 mph 7 mph 82% 0.000 in 0.00 W/m2
06:34 80.0 °F 74.0 °F 29.8 in SE 8 mph 8 mph 82% 0.000 in 5.00 W/m2
06:39 80.0 °F 75.0 °F 29.8 in SE 12 mph 12 mph 83% 0.000 in 9.00 W/m2
06:44 80.0 °F 75.0 °F 29.8 in SE 9 mph 12 mph 83% 0.000 in 12.00 W/m2
06:49 80.0 °F 75.0 °F 29.8 in SE 9 mph 9 mph 83% 0.000 in 16.00 W/m2
06:54 80.0 °F 75.0 °F 29.8 in SE 10 mph 10 mph 83% 0.000 in 19.00 W/m2
06:59 80.0 °F 75.0 °F 29.9 in SE 13 mph 13 mph 83% 0.000 in 23.00 W/m2
07:04 80.0 °F 75.0 °F 29.9 in SE 8 mph 13 mph 83% 0.000 in 32.00 W/m2
07:09 80.0 °F 75.0 °F 29.9 in SE 9 mph 11 mph 83% 0.000 in 40.00 W/m2
07:14 80.0 °F 75.0 °F 29.9 in SE 9 mph 10 mph 83% 0.000 in 42.00 W/m2
07:19 80.0 °F 75.0 °F 29.9 in SE 8 mph 9 mph 83% 0.000 in 46.00 W/m2
07:24 80.0 °F 75.0 °F 29.9 in SSE 5 mph 8 mph 83% 0.000 in 51.00 W/m2
07:29 81.0 °F 75.0 °F 29.9 in SE 8 mph 8 mph 83% 0.000 in 65.00 W/m2
07:34 81.0 °F 75.0 °F 29.9 in SSE 8 mph 8 mph 82% 0.000 in 70.00 W/m2
07:39 81.0 °F 75.0 °F 29.9 in SSE 9 mph 9 mph 82% 0.000 in 77.00 W/m2
07:44 81.0 °F 75.0 °F 29.9 in SSE 12 mph 12 mph 82% 0.000 in 84.00 W/m2
07:49 81.0 °F 75.0 °F 29.9 in SSE 11 mph 12 mph 82% 0.000 in 98.00 W/m2
07:54 81.0 °F 75.0 °F 29.9 in SE 12 mph 14 mph 82% 0.000 in 84.00 W/m2
07:59 81.0 °F 75.0 °F 29.9 in SE 11 mph 14 mph 82% 0.000 in 107.00 W/m2
08:04 81.0 °F 75.0 °F 29.9 in SE 9 mph 9 mph 82% 0.000 in 121.00 W/m2
08:09 82.0 °F 75.0 °F 29.9 in SSE 14 mph 14 mph 81% 0.000 in 113.00 W/m2
08:14 82.0 °F 75.0 °F 29.9 in SE 11 mph 12 mph 81% 0.000 in 169.00 W/m2
08:19 82.0 °F 75.0 °F 29.9 in SSE 11 mph 12 mph 81% 0.000 in 169.00 W/m2
08:24 82.0 °F 75.0 °F 29.9 in SSE 9 mph 11 mph 80% 0.000 in 151.00 W/m2
08:29 82.0 °F 75.0 °F 29.9 in SSE 10 mph 11 mph 80% 0.000 in 172.00 W/m2
08:34 83.0 °F 75.0 °F 29.9 in SSE 9 mph 11 mph 79% 0.000 in 174.00 W/m2
08:39 83.0 °F 75.0 °F 29.9 in SSE 12 mph 14 mph 79% 0.000 in 246.00 W/m2
08:44 83.0 °F 75.0 °F 29.9 in SSE 8 mph 9 mph 78% 0.000 in 290.00 W/m2
08:49 83.0 °F 76.0 °F 29.9 in SSE 9 mph 11 mph 78% 0.000 in 178.00 W/m2
08:54 84.0 °F 76.0 °F 29.9 in SSE 14 mph 14 mph 77% 0.000 in 221.00 W/m2
08:59 84.0 °F 76.0 °F 29.9 in SE 12 mph 12 mph 77% 0.000 in 181.00 W/m2
09:04 84.0 °F 75.0 °F 29.9 in SSE 11 mph 12 mph 76% 0.000 in 302.00 W/m2
09:09 84.0 °F 75.0 °F 29.9 in SSE 10 mph 12 mph 76% 0.000 in 411.00 W/m2
09:14 84.0 °F 76.0 °F 29.9 in SSE 10 mph 13 mph 76% 0.000 in 404.00 W/m2
09:19 85.0 °F 76.0 °F 29.9 in SE 10 mph 11 mph 75% 0.000 in 383.00 W/m2
09:24 85.0 °F 76.0 °F 29.9 in SSE 12 mph 12 mph 74% 0.000 in 413.00 W/m2
09:29 85.0 °F 76.0 °F 29.9 in SSE 12 mph 14 mph 74% 0.000 in 454.00 W/m2
09:34 85.0 °F 76.0 °F 29.9 in SSE 12 mph 15 mph 73% 0.000 in 571.00 W/m2
09:39 86.0 °F 75.0 °F 29.9 in SSE 13 mph 13 mph 72% 0.000 in 571.00 W/m2
09:44 86.0 °F 76.0 °F 29.9 in SSE 10 mph 13 mph 72% 0.000 in 478.00 W/m2
09:49 86.0 °F 76.0 °F 29.9 in SE 9 mph 14 mph 71% 0.000 in 501.00 W/m2
09:54 87.0 °F 76.0 °F 29.9 in SSE 15 mph 15 mph 71% 0.000 in 559.00 W/m2
09:59 87.0 °F 76.0 °F 29.9 in SSE 11 mph 12 mph 70% 0.000 in 587.00 W/m2
10:04 87.0 °F 76.0 °F 29.9 in South 12 mph 15 mph 69% 0.000 in 612.00 W/m2
10:09 88.0 °F 76.0 °F 29.9 in SSE 11 mph 12 mph 68% 0.000 in 613.00 W/m2
10:14 88.0 °F 76.0 °F 29.9 in SSE 11 mph 12 mph 68% 0.000 in 603.00 W/m2
10:19 88.0 °F 76.0 °F 29.9 in SSE 13 mph 13 mph 67% 0.000 in 216.00 W/m2
10:24 88.0 °F 76.0 °F 29.9 in SSE 10 mph 16 mph 66% 0.000 in 552.00 W/m2
10:29 88.0 °F 76.0 °F 29.9 in SSE 9 mph 10 mph 66% 0.000 in 661.00 W/m2
10:34 89.0 °F 76.0 °F 29.9 in SSE 12 mph 13 mph 66% 0.000 in 708.00 W/m2
10:39 89.0 °F 76.0 °F 29.9 in SSE 10 mph 13 mph 65% 0.000 in 708.00 W/m2
10:44 90.0 °F 76.0 °F 29.9 in SSE 9 mph 10 mph 64% 0.000 in 705.00 W/m2
10:49 90.0 °F 76.0 °F 29.9 in SSE 12 mph 14 mph 63% 0.000 in 738.00 W/m2
10:54 91.0 °F 75.0 °F 29.9 in SSE 8 mph 14 mph 61% 0.000 in 729.00 W/m2
10:59 91.0 °F 76.0 °F 29.9 in SSE 14 mph 16 mph 61% 0.000 in 749.00 W/m2
11:04 91.0 °F 75.0 °F 29.9 in SSE 11 mph 16 mph 59% 0.000 in 780.00 W/m2
11:09 92.0 °F 75.0 °F 29.9 in SSE 14 mph 14 mph 59% 0.000 in 821.00 W/m2
11:14 92.0 °F 75.0 °F 29.9 in SSE 10 mph 15 mph 58% 0.000 in 872.00 W/m2
11:19 92.0 °F 75.0 °F 29.9 in SSE 12 mph 13 mph 58% 0.000 in 872.00 W/m2
11:24 92.0 °F 75.0 °F 29.9 in SSE 11 mph 12 mph 58% 0.000 in 863.00 W/m2
11:29 92.0 °F 75.0 °F 29.9 in SSE 9 mph 12 mph 58% 0.000 in 821.00 W/m2
11:34 93.0 °F 76.0 °F 29.9 in SSE 10 mph 12 mph 58% 0.000 in 817.00 W/m2
11:39 93.0 °F 76.0 °F 29.9 in SSE 10 mph 12 mph 57% 0.000 in 823.00 W/m2
11:44 94.0 °F 76.0 °F 29.9 in SSE 10 mph 11 mph 57% 0.000 in 847.00 W/m2
11:49 94.0 °F 76.0 °F 29.9 in SSE 12 mph 12 mph 56% 0.000 in 916.00 W/m2
11:54 94.0 °F 76.0 °F 29.9 in SSE 10 mph 12 mph 56% 0.000 in 916.00 W/m2
11:59 94.0 °F 76.0 °F 29.9 in SE 15 mph 15 mph 56% 0.000 in 916.00 W/m2
12:04 94.0 °F 77.0 °F 29.9 in SSE 14 mph 14 mph 57% 0.000 in 951.00 W/m2
12:09 94.0 °F 77.0 °F 29.9 in SE 12 mph 15 mph 57% 0.000 in 951.00 W/m2
12:14 94.0 °F 77.0 °F 29.9 in SSE 12 mph 12 mph 59% 0.000 in 385.00 W/m2
12:19 94.0 °F 77.0 °F 29.9 in SSE 8 mph 12 mph 59% 0.000 in 323.00 W/m2
12:24 94.0 °F 77.0 °F 29.9 in SSE 9 mph 14 mph 59% 0.000 in 315.00 W/m2
12:29 94.0 °F 78.0 °F 29.9 in SSE 12 mph 14 mph 60% 0.000 in 974.00 W/m2
12:34 94.0 °F 78.0 °F 29.9 in SSE 14 mph 14 mph 60% 0.000 in 1009.00 W/m2
12:39 95.0 °F 78.0 °F 29.9 in SSE 14 mph 14 mph 60% 0.000 in 979.00 W/m2
12:44 95.0 °F 78.0 °F 29.9 in SE 15 mph 15 mph 59% 0.000 in 981.00 W/m2
12:49 95.0 °F 78.0 °F 29.9 in SSE 9 mph 13 mph 59% 0.000 in 1002.00 W/m2
12:54 95.0 °F 78.0 °F 29.9 in SE 8 mph 13 mph 59% 0.000 in 1055.00 W/m2
12:59 95.0 °F 79.0 °F 29.9 in SE 14 mph 14 mph 59% 0.000 in 1055.00 W/m2
13:04 95.0 °F 79.0 °F 29.9 in SSE 13 mph 13 mph 59% 0.000 in 1053.00 W/m2
13:09 95.0 °F 79.0 °F 29.9 in SSE 13 mph 14 mph 59% 0.000 in 1053.00 W/m2
13:14 95.0 °F 78.0 °F 29.9 in SSE 15 mph 15 mph 58% 0.000 in 1042.00 W/m2
13:19 96.0 °F 79.0 °F 29.9 in SSE 8 mph 15 mph 59% 0.000 in 1004.00 W/m2
13:24 96.0 °F 79.0 °F 29.9 in SSE 11 mph 12 mph 59% 0.000 in 1011.00 W/m2
13:29 96.0 °F 79.0 °F 29.9 in SE 15 mph 15 mph 58% 0.000 in 984.00 W/m2
13:34 96.0 °F 79.0 °F 29.9 in SSE 10 mph 14 mph 59% 0.000 in 1016.00 W/m2
13:39 96.0 °F 79.0 °F 29.9 in SSE 17 mph 17 mph 59% 0.000 in 984.00 W/m2
13:44 96.0 °F 79.0 °F 29.9 in SSE 11 mph 17 mph 59% 0.000 in 1009.00 W/m2
13:49 96.0 °F 78.0 °F 29.9 in SE 10 mph 15 mph 58% 0.000 in 991.00 W/m2
13:54 96.0 °F 78.0 °F 29.9 in SSE 11 mph 15 mph 58% 0.000 in 355.00 W/m2
13:59 96.0 °F 78.0 °F 29.9 in SSE 11 mph 16 mph 59% 0.000 in 316.00 W/m2
14:04 95.0 °F 79.0 °F 29.9 in SE 14 mph 15 mph 60% 0.000 in 977.00 W/m2
14:09 95.0 °F 79.0 °F 29.9 in SSE 13 mph 15 mph 59% 0.000 in 969.00 W/m2
14:14 96.0 °F 79.0 °F 29.9 in SSE 10 mph 16 mph 59% 0.000 in 979.00 W/m2
14:19 96.0 °F 79.0 °F 29.9 in SSE 12 mph 14 mph 59% 0.000 in 944.00 W/m2
14:24 96.0 °F 79.0 °F 29.9 in SSE 13 mph 13 mph 59% 0.000 in 926.00 W/m2
14:29 96.0 °F 79.0 °F 29.9 in SSE 17 mph 17 mph 58% 0.000 in 932.00 W/m2
14:34 96.0 °F 79.0 °F 29.9 in SE 18 mph 18 mph 57% 0.000 in 926.00 W/m2
14:39 96.0 °F 79.0 °F 29.9 in SE 14 mph 15 mph 57% 0.000 in 891.00 W/m2
14:44 96.0 °F 79.0 °F 29.9 in SE 11 mph 12 mph 57% 0.000 in 949.00 W/m2
14:49 97.0 °F 80.0 °F 29.9 in SSE 13 mph 13 mph 58% 0.000 in 974.00 W/m2
14:54 97.0 °F 79.0 °F 29.9 in SSE 13 mph 14 mph 57% 0.000 in 974.00 W/m2
14:59 97.0 °F 79.0 °F 29.9 in SE 16 mph 16 mph 57% 0.000 in 881.00 W/m2
15:04 97.0 °F 79.0 °F 29.9 in SE 11 mph 13 mph 57% 0.000 in 923.00 W/m2
15:09 97.0 °F 79.0 °F 29.9 in SSE 12 mph 13 mph 57% 0.000 in 853.00 W/m2
15:14 97.0 °F 79.0 °F 29.9 in SE 11 mph 15 mph 57% 0.000 in 875.00 W/m2
15:24 97.0 °F 79.0 °F 29.9 in SE 21 mph 21 mph 57% 0.000 in 856.00 W/m2
15:29 96.0 °F 79.0 °F 29.9 in SSE 13 mph 21 mph 57% 0.000 in 856.00 W/m2
15:34 97.0 °F 79.0 °F 29.9 in SSE 10 mph 14 mph 57% 0.000 in 849.00 W/m2
15:39 97.0 °F 79.0 °F 29.9 in SSE 18 mph 19 mph 57% 0.000 in 849.00 W/m2
15:44 97.0 °F 79.0 °F 29.9 in SE 16 mph 17 mph 57% 0.000 in 830.00 W/m2
15:49 97.0 °F 79.0 °F 29.9 in SE 15 mph 17 mph 56% 0.000 in 816.00 W/m2
15:54 97.0 °F 79.0 °F 29.9 in SSE 17 mph 17 mph 56% 0.000 in 800.00 W/m2
15:59 97.0 °F 79.0 °F 29.9 in SSE 10 mph 17 mph 57% 0.000 in 789.00 W/m2
16:04 98.0 °F 79.0 °F 29.9 in SE 16 mph 16 mph 56% 0.000 in 770.00 W/m2
16:09 97.0 °F 78.0 °F 29.9 in SE 12 mph 13 mph 55% 0.000 in 728.00 W/m2
16:14 97.0 °F 79.0 °F 29.9 in SSE 12 mph 14 mph 56% 0.000 in 749.00 W/m2
16:19 96.0 °F 78.0 °F 29.9 in SE 11 mph 15 mph 57% 0.000 in 691.00 W/m2
16:24 96.0 °F 79.0 °F 29.9 in SE 10 mph 13 mph 58% 0.000 in 701.00 W/m2
16:29 96.0 °F 79.0 °F 29.9 in SE 14 mph 14 mph 58% 0.000 in 679.00 W/m2
16:34 96.0 °F 79.0 °F 29.9 in SE 14 mph 15 mph 58% 0.000 in 659.00 W/m2
16:39 96.0 °F 79.0 °F 29.9 in SE 14 mph 14 mph 58% 0.000 in 652.00 W/m2
16:44 96.0 °F 79.0 °F 29.9 in SE 10 mph 13 mph 58% 0.000 in 668.00 W/m2
16:49 96.0 °F 79.0 °F 29.9 in SE 14 mph 17 mph 58% 0.000 in 566.00 W/m2
16:54 96.0 °F 80.0 °F 29.9 in SE 12 mph 17 mph 61% 0.000 in 207.00 W/m2
16:59 95.0 °F 80.0 °F 29.9 in ESE 10 mph 10 mph 63% 0.000 in 223.00 W/m2
17:04 95.0 °F 80.0 °F 29.9 in ESE 10 mph 15 mph 64% 0.000 in 183.00 W/m2
17:09 94.0 °F 80.0 °F 29.9 in ESE 12 mph 13 mph 65% 0.000 in 536.00 W/m2
17:14 93.0 °F 80.0 °F 29.9 in SE 12 mph 14 mph 65% 0.000 in 536.00 W/m2
17:19 93.0 °F 80.0 °F 29.9 in SE 16 mph 16 mph 65% 0.000 in 536.00 W/m2
17:24 93.0 °F 80.0 °F 29.9 in SE 12 mph 14 mph 66% 0.000 in 295.00 W/m2
17:29 93.0 °F 80.0 °F 29.9 in SE 11 mph 13 mph 66% 0.000 in 171.00 W/m2
17:34 92.0 °F 80.0 °F 29.9 in SE 13 mph 17 mph 67% 0.000 in 475.00 W/m2
17:39 92.0 °F 79.0 °F 29.9 in SE 11 mph 11 mph 67% 0.000 in 190.00 W/m2
17:44 92.0 °F 79.0 °F 29.9 in SE 12 mph 14 mph 67% 0.000 in 174.00 W/m2
17:49 92.0 °F 79.0 °F 29.9 in SE 11 mph 14 mph 67% 0.000 in 128.00 W/m2
17:54 91.0 °F 79.0 °F 29.9 in SE 14 mph 15 mph 67% 0.000 in 383.00 W/m2
17:59 91.0 °F 79.0 °F 29.9 in SE 14 mph 15 mph 67% 0.000 in 359.00 W/m2
18:04 91.0 °F 79.0 °F 29.9 in SE 13 mph 13 mph 67% 0.000 in 357.00 W/m2
18:09 91.0 °F 79.0 °F 29.9 in SE 11 mph 13 mph 68% 0.000 in 348.00 W/m2
18:14 91.0 °F 79.0 °F 29.9 in SE 11 mph 13 mph 68% 0.000 in 348.00 W/m2
18:19 91.0 °F 79.0 °F 29.9 in ESE 9 mph 11 mph 68% 0.000 in 339.00 W/m2
18:24 91.0 °F 79.0 °F 29.9 in SE 11 mph 12 mph 68% 0.000 in 304.00 W/m2
18:29 91.0 °F 79.0 °F 29.9 in SE 14 mph 14 mph 68% 0.000 in 244.00 W/m2
18:34 91.0 °F 79.0 °F 29.9 in SE 8 mph 14 mph 68% 0.000 in 234.00 W/m2
18:39 91.0 °F 79.0 °F 29.9 in SE 11 mph 11 mph 69% 0.000 in 190.00 W/m2
18:44 91.0 °F 79.0 °F 29.9 in SE 12 mph 12 mph 69% 0.000 in 141.00 W/m2
18:49 90.0 °F 78.0 °F 29.9 in SE 8 mph 11 mph 69% 0.000 in 116.00 W/m2
18:54 90.0 °F 78.0 °F 29.9 in SE 8 mph 12 mph 69% 0.000 in 74.00 W/m2
18:59 89.0 °F 78.0 °F 29.9 in SE 15 mph 15 mph 70% 0.000 in 40.00 W/m2
19:04 89.0 °F 78.0 °F 29.9 in SE 9 mph 11 mph 71% 0.000 in 33.00 W/m2
19:09 89.0 °F 78.0 °F 29.9 in SE 12 mph 13 mph 71% 0.000 in 23.00 W/m2
19:14 88.0 °F 78.0 °F 29.9 in SE 12 mph 12 mph 71% 0.000 in 32.00 W/m2
19:19 88.0 °F 78.0 °F 29.9 in SE 11 mph 11 mph 72% 0.000 in 33.00 W/m2
19:24 87.0 °F 77.0 °F 29.9 in SE 10 mph 11 mph 72% 0.000 in 32.00 W/m2
19:29 87.0 °F 77.0 °F 29.9 in SE 13 mph 13 mph 73% 0.000 in 30.00 W/m2
19:34 87.0 °F 77.0 °F 29.9 in SE 9 mph 9 mph 73% 0.000 in 26.00 W/m2
19:39 87.0 °F 77.0 °F 29.9 in SE 10 mph 12 mph 74% 0.000 in 23.00 W/m2
19:44 87.0 °F 77.0 °F 29.9 in SE 6 mph 10 mph 74% 0.000 in 19.00 W/m2
19:49 86.0 °F 77.0 °F 29.9 in SE 7 mph 7 mph 74% 0.000 in 14.00 W/m2
19:54 86.0 °F 77.0 °F 29.9 in SE 7 mph 7 mph 74% 0.000 in 11.00 W/m2
19:59 86.0 °F 77.0 °F 29.9 in ESE 7 mph 7 mph 75% 0.000 in 7.00 W/m2
20:04 86.0 °F 77.0 °F 29.9 in SE 13 mph 15 mph 75% 0.000 in 0.00 W/m2
20:09 86.0 °F 77.0 °F 29.9 in SE 8 mph 10 mph 75% 0.000 in 0.00 W/m2
20:14 86.0 °F 77.0 °F 30.0 in SE 9 mph 9 mph 76% 0.000 in 0.00 W/m2
20:19 86.0 °F 77.0 °F 29.9 in SE 9 mph 10 mph 76% 0.000 in 0.00 W/m2
20:24 86.0 °F 77.0 °F 29.9 in SE 9 mph 11 mph 76% 0.000 in 0.00 W/m2
20:29 85.0 °F 77.0 °F 29.9 in SE 9 mph 11 mph 77% 0.000 in 0.00 W/m2
20:34 85.0 °F 77.0 °F 29.9 in SE 11 mph 11 mph 77% 0.000 in 0.00 W/m2
20:39 85.0 °F 77.0 °F 29.9 in SE 10 mph 12 mph 77% 0.000 in 0.00 W/m2
20:44 85.0 °F 77.0 °F 29.9 in SE 11 mph 11 mph 77% 0.000 in 0.00 W/m2
20:49 85.0 °F 77.0 °F 30.0 in SE 11 mph 12 mph 78% 0.000 in 0.00 W/m2
20:54 84.0 °F 77.0 °F 30.0 in SE 10 mph 10 mph 78% 0.000 in 0.00 W/m2
20:59 84.0 °F 77.0 °F 30.0 in SE 11 mph 13 mph 78% 0.000 in 0.00 W/m2
21:04 84.0 °F 77.0 °F 30.0 in SE 7 mph 10 mph 78% 0.000 in 0.00 W/m2
21:09 84.0 °F 77.0 °F 30.0 in SE 11 mph 11 mph 78% 0.000 in 0.00 W/m2
21:14 84.0 °F 77.0 °F 30.0 in SE 7 mph 11 mph 79% 0.000 in 0.00 W/m2
21:19 84.0 °F 77.0 °F 30.0 in SE 10 mph 10 mph 79% 0.000 in 0.00 W/m2
21:24 84.0 °F 77.0 °F 30.0 in SE 10 mph 10 mph 79% 0.000 in 0.00 W/m2
21:29 84.0 °F 77.0 °F 30.0 in SE 12 mph 12 mph 79% 0.000 in 0.00 W/m2
21:34 84.0 °F 77.0 °F 30.0 in SE 8 mph 9 mph 79% 0.000 in 0.00 W/m2
21:39 84.0 °F 77.0 °F 30.0 in SE 8 mph 10 mph 79% 0.000 in 0.00 W/m2
21:44 84.0 °F 77.0 °F 30.0 in SE 9 mph 9 mph 79% 0.000 in 0.00 W/m2
21:49 84.0 °F 77.0 °F 30.0 in SSE 9 mph 10 mph 80% 0.000 in 0.00 W/m2
21:54 84.0 °F 77.0 °F 30.0 in SE 10 mph 12 mph 80% 0.000 in 0.00 W/m2
21:59 84.0 °F 77.0 °F 30.0 in SE 10 mph 12 mph 80% 0.000 in 0.00 W/m2
22:04 84.0 °F 77.0 °F 30.0 in SE 11 mph 11 mph 80% 0.000 in 0.00 W/m2
22:09 84.0 °F 76.0 °F 30.0 in SE 9 mph 10 mph 79% 0.000 in 0.00 W/m2
22:14 84.0 °F 77.0 °F 30.0 in SE 10 mph 12 mph 80% 0.000 in 0.00 W/m2
22:19 84.0 °F 77.0 °F 30.0 in SE 10 mph 10 mph 80% 0.000 in 0.00 W/m2
22:24 84.0 °F 77.0 °F 30.0 in SE 11 mph 11 mph 80% 0.000 in 0.00 W/m2
22:29 83.0 °F 77.0 °F 30.0 in SE 11 mph 12 mph 80% 0.000 in 0.00 W/m2
22:34 83.0 °F 77.0 °F 30.0 in SE 7 mph 10 mph 80% 0.000 in 0.00 W/m2
22:39 83.0 °F 77.0 °F 30.0 in SE 10 mph 10 mph 80% 0.000 in 0.00 W/m2
22:44 83.0 °F 76.0 °F 30.0 in SE 9 mph 10 mph 80% 0.000 in 0.00 W/m2
22:49 83.0 °F 76.0 °F 30.0 in SE 6 mph 8 mph 80% 0.000 in 0.00 W/m2
22:54 83.0 °F 76.0 °F 30.0 in SE 7 mph 7 mph 80% 0.000 in 0.00 W/m2
22:59 83.0 °F 76.0 °F 30.0 in SE 8 mph 8 mph 80% 0.000 in 0.00 W/m2
23:04 83.0 °F 76.0 °F 30.0 in SE 9 mph 9 mph 80% 0.000 in 0.00 W/m2
23:09 83.0 °F 76.0 °F 30.0 in SE 8 mph 9 mph 80% 0.000 in 0.00 W/m2
23:14 83.0 °F 76.0 °F 30.0 in SE 5 mph 5 mph 80% 0.000 in 0.00 W/m2
23:19 83.0 °F 76.0 °F 30.0 in SE 8 mph 9 mph 80% 0.000 in 0.00 W/m2
23:24 83.0 °F 76.0 °F 30.0 in SE 7 mph 8 mph 80% 0.000 in 0.00 W/m2
23:29 83.0 °F 76.0 °F 30.0 in SE 5 mph 7 mph 80% 0.000 in 0.00 W/m2
23:34 83.0 °F 76.0 °F 30.0 in SSE 4 mph 5 mph 80% 0.000 in 0.00 W/m2
23:39 83.0 °F 76.0 °F 30.0 in SE 7 mph 7 mph 80% 0.000 in 0.00 W/m2
23:44 83.0 °F 76.0 °F 30.0 in SE 4 mph 6 mph 80% 0.000 in 0.00 W/m2
23:49 83.0 °F 76.0 °F 30.0 in SE 7 mph 7 mph 80% 0.000 in 0.00 W/m2
23:54 83.0 °F 76.0 °F 30.0 in SSE 5 mph 7 mph 80% 0.000 in 0.00 W/m2
23:59 83.0 °F 76.0 °F 30.0 in SE 4 mph 4 mph 80% 0.000 in 0.00 W/m2
Villages of Bridgestone, Spring, TX USA
Compliments of Weather Underground - 4 mb